createdAt,value
2018-09-19T00:01:19.097Z,24.00
2018-09-19T00:03:45.723Z,23.92
2018-09-19T00:06:12.377Z,23.93
2018-09-19T00:08:41.290Z,23.96
2018-09-19T00:11:05.736Z,23.93
2018-09-19T00:13:32.380Z,23.97
2018-09-19T00:15:59.075Z,23.90
2018-09-19T00:18:25.736Z,23.91
2018-09-19T00:20:52.375Z,23.93
2018-09-19T00:23:20.234Z,23.93
2018-09-19T00:25:48.047Z,23.93
2018-09-19T00:28:15.180Z,23.92
2018-09-19T00:30:41.818Z,23.86
2018-09-19T00:33:08.512Z,23.84
2018-09-19T00:35:35.206Z,23.85
2018-09-19T00:38:01.861Z,23.85
2018-09-19T00:40:28.509Z,23.81
2018-09-19T00:42:55.183Z,23.81
2018-09-19T00:45:21.887Z,23.84
2018-09-19T00:47:48.585Z,23.85
2018-09-19T00:50:15.318Z,23.81
2018-09-19T00:52:41.956Z,23.79
2018-09-19T00:55:08.697Z,23.83
2018-09-19T00:57:35.334Z,23.77
2018-09-19T01:00:02.036Z,23.79
2018-09-19T01:02:28.778Z,23.77
2018-09-19T01:04:55.477Z,23.75
2018-09-19T01:07:22.101Z,23.78
2018-09-19T01:09:48.735Z,23.74
2018-09-19T01:12:16.711Z,23.79
2018-09-19T01:14:43.160Z,23.73
2018-09-19T01:17:09.786Z,23.74
2018-09-19T01:19:36.422Z,23.72
2018-09-19T01:22:03.074Z,23.77
2018-09-19T01:24:29.711Z,23.69
2018-09-19T01:26:56.410Z,23.70
2018-09-19T01:29:23.036Z,23.69
2018-09-19T01:31:49.714Z,23.73
2018-09-19T01:34:17.759Z,23.71
2018-09-19T01:36:43.078Z,23.64
2018-09-19T01:39:09.733Z,23.68
2018-09-19T01:41:36.383Z,23.68
2018-09-19T01:44:03.032Z,23.67
2018-09-19T01:46:29.670Z,23.68
2018-09-19T01:48:58.485Z,23.67
2018-09-19T01:51:22.965Z,23.64
2018-09-19T01:53:49.653Z,23.63
2018-09-19T01:56:16.298Z,23.60
2018-09-19T01:58:42.945Z,23.60
2018-09-19T02:01:09.573Z,23.61
2018-09-19T02:03:36.264Z,23.58
2018-09-19T02:06:02.939Z,23.56
2018-09-19T02:08:29.689Z,23.57
2018-09-19T02:10:56.352Z,23.57
2018-09-19T02:13:23.030Z,23.49
2018-09-19T02:15:49.673Z,23.53
2018-09-19T02:18:16.320Z,23.49
2018-09-19T02:20:42.969Z,23.48
2018-09-19T02:23:11.828Z,23.49
2018-09-19T02:25:36.452Z,23.47
2018-09-19T02:28:04.438Z,23.47
2018-09-19T02:30:29.722Z,23.49
2018-09-19T02:32:56.437Z,23.48
2018-09-19T02:35:23.504Z,23.46
2018-09-19T02:37:50.141Z,23.43
2018-09-19T02:40:16.833Z,23.43
2018-09-19T02:42:43.461Z,23.42
2018-09-19T02:45:10.145Z,23.44
2018-09-19T02:47:38.221Z,23.40
2018-09-19T02:50:03.469Z,23.41
2018-09-19T02:52:30.185Z,23.36
2018-09-19T02:54:56.824Z,23.41
2018-09-19T02:57:23.509Z,23.36
2018-09-19T02:59:50.149Z,23.35
2018-09-19T03:02:16.837Z,23.24
2018-09-19T03:07:10.134Z,23.40
2018-09-19T03:09:36.817Z,23.40
2018-09-19T03:12:03.453Z,23.28
2018-09-19T03:14:32.265Z,23.28
2018-09-19T03:16:59.756Z,23.18
2018-09-19T03:19:26.469Z,23.16
2018-09-19T03:21:53.227Z,23.10
2018-09-19T03:24:20.015Z,23.08
2018-09-19T03:26:46.650Z,23.19
2018-09-19T03:29:13.325Z,23.20
2018-09-19T03:31:39.975Z,23.17
2018-09-19T03:34:06.724Z,23.13
2018-09-19T03:36:33.374Z,23.14
2018-09-19T03:39:00.086Z,23.15
2018-09-19T03:41:26.734Z,23.01
2018-09-19T03:43:53.373Z,22.94
2018-09-19T03:46:20.062Z,23.00
2018-09-19T03:48:46.702Z,23.11
2018-09-19T03:51:13.430Z,23.17
2018-09-19T03:53:40.074Z,23.06
2018-09-19T03:56:06.762Z,22.99
2018-09-19T03:58:33.413Z,22.99
2018-09-19T04:01:00.057Z,22.91
2018-09-19T04:03:26.738Z,22.83
2018-09-19T04:05:53.483Z,22.96
2018-09-19T04:08:21.638Z,23.03
2018-09-19T04:10:46.741Z,23.11
2018-09-19T04:13:13.435Z,23.05
2018-09-19T04:15:40.118Z,23.03
2018-09-19T04:18:06.759Z,23.00
2018-09-19T04:20:33.410Z,23.10
2018-09-19T04:23:00.056Z,22.99
2018-09-19T04:25:26.743Z,22.99
2018-09-19T04:27:53.386Z,22.97
2018-09-19T04:30:20.060Z,23.03
2018-09-19T04:32:46.796Z,23.13
2018-09-19T04:35:13.557Z,23.26
2018-09-19T04:37:40.264Z,23.21
2018-09-19T04:40:10.188Z,23.20
2018-09-19T04:42:36.804Z,23.36
2018-09-19T04:45:03.583Z,23.33
2018-09-19T04:47:30.292Z,23.33
2018-09-19T04:49:56.929Z,23.38
2018-09-19T04:52:23.586Z,23.42
2018-09-19T04:54:51.244Z,23.43
2018-09-19T04:57:16.872Z,23.47
2018-09-19T04:59:43.660Z,23.60
2018-09-19T05:02:10.366Z,23.63
2018-09-19T05:04:37.008Z,23.67
2018-09-19T05:07:03.737Z,23.69
2018-09-19T05:09:30.350Z,23.76
2018-09-19T05:11:57.045Z,23.79
2018-09-19T05:14:23.692Z,23.86
2018-09-19T05:16:50.381Z,23.91
2018-09-19T05:19:17.067Z,24.06
2018-09-19T05:21:45.108Z,24.10
2018-09-19T05:24:10.399Z,24.19
2018-09-19T05:26:37.037Z,24.24
2018-09-19T05:29:03.744Z,24.28
2018-09-19T05:31:30.413Z,24.42
2018-09-19T05:33:57.062Z,24.47
2018-09-19T05:36:23.703Z,24.53
2018-09-19T05:38:50.471Z,24.55
2018-09-19T05:41:17.210Z,24.63
2018-09-19T05:43:43.930Z,24.71
2018-09-19T05:46:10.615Z,24.71
2018-09-19T05:48:37.292Z,24.70
2018-09-19T05:51:03.963Z,24.84
2018-09-19T05:53:30.675Z,24.86
2018-09-19T05:55:57.360Z,24.87
2018-09-19T05:58:23.978Z,24.92
2018-09-19T06:00:50.722Z,24.87
2018-09-19T06:03:17.370Z,25.01
2018-09-19T06:05:44.025Z,25.11
2018-09-19T06:08:10.666Z,25.08
2018-09-19T06:10:37.352Z,25.14
2018-09-19T06:13:04.006Z,25.18
2018-09-19T06:15:30.792Z,25.18
2018-09-19T06:17:57.470Z,25.15
2018-09-19T06:20:24.109Z,25.29
2018-09-19T06:22:50.832Z,25.37
2018-09-19T06:25:17.487Z,25.46
2018-09-19T06:27:44.144Z,25.38
2018-09-19T06:30:10.817Z,25.57
2018-09-19T06:32:37.586Z,25.45
2018-09-19T06:35:05.722Z,25.62
2018-09-19T06:37:30.809Z,25.56
2018-09-19T06:39:57.564Z,25.55
2018-09-19T06:42:24.130Z,25.43
2018-09-19T06:44:50.813Z,25.33
2018-09-19T06:47:17.504Z,25.25
2018-09-19T06:49:44.144Z,25.24
2018-09-19T06:52:10.897Z,25.17
2018-09-19T06:54:37.564Z,25.24
2018-09-19T06:57:04.205Z,25.38
2018-09-19T06:59:30.920Z,25.43
2018-09-19T07:01:57.707Z,25.57
2018-09-19T07:04:24.351Z,25.56
2018-09-19T07:06:53.835Z,25.56
2018-09-19T07:09:20.607Z,25.57
2018-09-19T07:11:47.246Z,25.52
2018-09-19T07:14:14.002Z,25.50
2018-09-19T07:16:40.646Z,25.37
2018-09-19T07:19:07.417Z,25.21
2018-09-19T07:21:34.157Z,25.08
2018-09-19T07:24:00.843Z,25.07
2018-09-19T07:26:27.782Z,25.22
2018-09-19T07:28:54.522Z,25.31
2018-09-19T07:31:21.334Z,25.33
2018-09-19T07:33:48.025Z,25.48
2018-09-19T07:36:14.672Z,25.41
2018-09-19T07:38:41.358Z,25.57
2018-09-19T07:41:08.390Z,25.72
2018-09-19T07:43:35.047Z,25.59
2018-09-19T07:46:01.736Z,25.52
2018-09-19T07:48:29.828Z,25.33
2018-09-19T07:50:55.111Z,25.40
2018-09-19T07:53:21.762Z,25.47
2018-09-19T07:55:48.553Z,25.48
2018-09-19T07:58:15.196Z,25.56
2018-09-19T08:00:41.894Z,25.60
2018-09-19T08:03:08.580Z,25.66
2018-09-19T08:05:37.305Z,25.75
2018-09-19T08:08:04.236Z,25.53
2018-09-19T08:10:30.929Z,25.42
2018-09-19T08:12:59.685Z,25.35
2018-09-19T08:15:24.216Z,25.47
2018-09-19T08:17:50.939Z,25.53
2018-09-19T08:20:17.541Z,25.59
2018-09-19T08:22:44.214Z,25.67
2018-09-19T08:25:10.953Z,25.71
2018-09-19T08:27:37.577Z,25.74
2018-09-19T08:30:04.311Z,25.73
2018-09-19T08:32:31.017Z,25.68
2018-09-19T08:34:57.620Z,25.48
2018-09-19T08:37:25.631Z,25.06
2018-09-19T08:39:54.175Z,25.25
2018-09-19T08:42:20.996Z,25.48
2018-09-19T08:44:47.781Z,25.48
2018-09-19T08:47:14.432Z,25.57
2018-09-19T08:49:41.132Z,25.72
2018-09-19T08:52:07.770Z,25.69
2018-09-19T08:54:34.504Z,25.73
2018-09-19T08:57:01.220Z,25.89
2018-09-19T08:59:27.813Z,25.55
2018-09-19T09:01:54.449Z,25.16
2018-09-19T09:04:21.103Z,25.24
2018-09-19T09:06:47.736Z,25.54
2018-09-19T09:09:14.372Z,25.49
2018-09-19T09:11:41.034Z,25.50
2018-09-19T09:14:07.754Z,25.61
2018-09-19T09:16:34.445Z,25.59
2018-09-19T09:19:02.425Z,25.21
2018-09-19T09:21:27.744Z,25.39
2018-09-19T09:23:54.391Z,25.54
2018-09-19T09:26:22.093Z,25.66
2018-09-19T09:28:47.662Z,25.76
2018-09-19T09:31:14.331Z,25.67
2018-09-19T09:33:41.015Z,25.71
2018-09-19T09:36:07.666Z,25.72
2018-09-19T09:38:34.309Z,25.74
2018-09-19T09:41:00.985Z,25.65
2018-09-19T09:43:27.669Z,25.75
2018-09-19T09:45:54.249Z,25.77
2018-09-19T09:48:23.946Z,25.53
2018-09-19T09:50:50.656Z,25.68
2018-09-19T09:53:17.321Z,25.61
2018-09-19T09:55:44.005Z,25.50
2018-09-19T09:58:10.664Z,25.28
2018-09-19T10:00:37.311Z,25.35
2018-09-19T10:03:03.994Z,25.47
2018-09-19T10:05:32.625Z,25.57
2018-09-19T10:08:02.389Z,25.65
2018-09-19T10:10:29.075Z,25.68
2018-09-19T10:12:55.719Z,25.78
2018-09-19T10:15:22.456Z,25.54
2018-09-19T10:17:49.098Z,25.24
2018-09-19T10:20:15.876Z,25.22
2018-09-19T10:22:42.576Z,25.58
2018-09-19T10:25:09.223Z,25.71
2018-09-19T10:27:35.838Z,25.77
2018-09-19T10:30:02.588Z,25.81
2018-09-19T10:32:29.248Z,25.66
2018-09-19T10:34:55.902Z,25.66
2018-09-19T10:37:22.568Z,25.65
2018-09-19T10:39:49.241Z,25.10
2018-09-19T10:42:18.905Z,25.50
2018-09-19T10:44:45.704Z,25.67
2018-09-19T10:47:12.359Z,25.81
2018-09-19T10:49:39.017Z,25.81
2018-09-19T10:52:05.666Z,25.36
2018-09-19T10:54:32.323Z,25.50
2018-09-19T10:56:59.019Z,25.25
2018-09-19T10:59:27.000Z,25.38
2018-09-19T11:01:52.378Z,25.31
2018-09-19T11:04:19.048Z,25.56
2018-09-19T11:06:45.832Z,25.69
2018-09-19T11:09:12.573Z,25.70
2018-09-19T11:11:40.615Z,25.73
2018-09-19T11:14:08.617Z,25.91
2018-09-19T11:16:35.262Z,25.96
2018-09-19T11:19:01.912Z,25.89
2018-09-19T11:21:28.573Z,25.82
2018-09-19T11:23:56.622Z,25.86
2018-09-19T11:26:22.047Z,25.69
2018-09-19T11:28:48.686Z,25.38
2018-09-19T11:31:15.385Z,25.44
2018-09-19T11:33:42.148Z,25.46
2018-09-19T11:36:08.792Z,25.30
2018-09-19T11:38:35.413Z,25.48
2018-09-19T11:41:02.161Z,25.64
2018-09-19T11:43:29.888Z,25.70
2018-09-19T11:45:55.558Z,25.74
2018-09-19T11:48:22.221Z,25.75
2018-09-19T11:50:48.932Z,25.82
2018-09-19T11:53:15.587Z,26.00
2018-09-19T11:55:42.222Z,25.44
2018-09-19T11:58:08.895Z,25.60
2018-09-19T12:00:35.550Z,25.36
2018-09-19T12:03:02.222Z,25.45
2018-09-19T12:05:28.886Z,25.53
2018-09-19T12:07:55.531Z,25.26
2018-09-19T12:10:25.458Z,25.30
2018-09-19T12:12:52.308Z,25.58
2018-09-19T12:15:18.987Z,25.72
2018-09-19T12:17:45.697Z,25.79
2018-09-19T12:20:12.441Z,25.79
2018-09-19T12:22:39.110Z,25.88
2018-09-19T12:25:05.745Z,25.96
2018-09-19T12:27:32.465Z,25.74
2018-09-19T12:29:59.208Z,25.78
2018-09-19T12:32:28.900Z,25.53
2018-09-19T12:34:55.548Z,25.09
2018-09-19T12:37:24.660Z,25.41
2018-09-19T12:39:48.902Z,25.55
2018-09-19T12:42:15.565Z,25.43
2018-09-19T12:44:42.333Z,25.73
2018-09-19T12:47:08.967Z,25.73
2018-09-19T12:49:37.404Z,25.91
2018-09-19T12:52:02.260Z,25.89
2018-09-19T12:54:30.210Z,25.95
2018-09-19T12:56:55.572Z,26.04
2018-09-19T12:59:22.222Z,25.85
2018-09-19T13:01:52.120Z,25.56
2018-09-19T13:04:18.749Z,25.54
2018-09-19T13:06:45.396Z,25.54
2018-09-19T13:09:12.140Z,25.67
2018-09-19T13:11:38.798Z,25.82
2018-09-19T13:14:05.431Z,25.70
2018-09-19T13:16:32.082Z,25.71
2018-09-19T13:18:58.772Z,25.39
2018-09-19T13:21:25.457Z,25.05
2018-09-19T13:23:52.160Z,25.45
2018-09-19T13:26:18.942Z,25.64
2018-09-19T13:28:46.977Z,25.84
2018-09-19T13:31:12.364Z,26.01
2018-09-19T13:33:42.427Z,25.98
2018-09-19T13:36:09.533Z,25.66
2018-09-19T13:38:36.313Z,25.56
2018-09-19T13:41:02.945Z,25.60
2018-09-19T13:43:29.859Z,25.48
2018-09-19T13:45:56.548Z,25.30
2018-09-19T13:48:23.284Z,25.33
2018-09-19T13:50:50.049Z,25.10
2018-09-19T13:53:16.780Z,25.44
2018-09-19T13:55:43.427Z,25.65
2018-09-19T13:58:11.982Z,25.76
2018-09-19T14:00:36.720Z,25.91
2018-09-19T14:03:03.376Z,25.95
2018-09-19T14:05:30.103Z,26.10
2018-09-19T14:07:58.198Z,26.06
2018-09-19T14:10:23.486Z,25.83
2018-09-19T14:12:50.207Z,25.72
2018-09-19T14:15:16.851Z,25.15
2018-09-19T14:17:43.598Z,25.17
2018-09-19T14:20:10.308Z,25.35
2018-09-19T14:22:37.032Z,25.25
2018-09-19T14:25:03.747Z,25.58
2018-09-19T14:27:33.309Z,25.69
2018-09-19T14:29:59.961Z,25.66
2018-09-19T14:32:26.606Z,25.93
2018-09-19T14:34:53.250Z,25.91
2018-09-19T14:37:19.950Z,26.02
2018-09-19T14:39:46.600Z,26.10
2018-09-19T14:42:13.238Z,25.97
2018-09-19T14:44:40.881Z,25.59
2018-09-19T14:47:07.517Z,25.66
2018-09-19T14:49:34.222Z,25.71
2018-09-19T14:52:00.942Z,25.86
2018-09-19T14:54:27.556Z,25.96
2018-09-19T14:56:54.203Z,26.04
2018-09-19T14:59:20.952Z,26.10
2018-09-19T15:01:47.569Z,26.21
2018-09-19T15:04:14.354Z,26.14
2018-09-19T15:06:41.013Z,26.19
2018-09-19T15:09:07.657Z,25.84
2018-09-19T15:11:34.297Z,25.89
2018-09-19T15:14:00.991Z,25.90
2018-09-19T15:16:27.630Z,25.85
2018-09-19T15:18:54.279Z,26.07
2018-09-19T15:21:21.019Z,26.12
2018-09-19T15:23:47.702Z,26.16
2018-09-19T15:26:14.354Z,26.27
2018-09-19T15:28:41.004Z,26.21
2018-09-19T15:31:07.681Z,26.31
2018-09-19T15:33:34.318Z,26.23
2018-09-19T15:36:00.996Z,26.38
2018-09-19T15:38:29.839Z,26.26
2018-09-19T15:40:58.076Z,26.33
2018-09-19T15:43:23.125Z,26.35
2018-09-19T15:45:49.854Z,26.28
2018-09-19T15:48:21.083Z,26.30
2018-09-19T15:50:46.482Z,26.32
2018-09-19T15:53:13.147Z,26.25
2018-09-19T15:55:39.984Z,26.25
2018-09-19T15:58:06.578Z,26.09
2018-09-19T16:00:33.266Z,26.20
2018-09-19T16:02:59.922Z,26.27
2018-09-19T16:05:26.608Z,26.12
2018-09-19T16:07:53.279Z,26.06
2018-09-19T16:10:19.920Z,26.09
2018-09-19T16:12:46.563Z,26.08
2018-09-19T16:15:13.209Z,26.00
2018-09-19T16:17:39.896Z,25.98
2018-09-19T16:20:06.538Z,26.00
2018-09-19T16:22:33.184Z,25.92
2018-09-19T16:24:59.910Z,25.87
2018-09-19T16:27:26.595Z,25.86
2018-09-19T16:29:53.244Z,25.87
2018-09-19T16:32:21.189Z,25.82
2018-09-19T16:34:46.522Z,25.78
2018-09-19T16:37:13.350Z,25.77
2018-09-19T16:39:40.113Z,25.77
2018-09-19T16:42:06.886Z,25.75
2018-09-19T16:44:33.658Z,25.73
2018-09-19T16:47:00.318Z,25.72
2018-09-19T16:49:26.953Z,25.72
2018-09-19T16:51:53.594Z,25.72
2018-09-19T16:54:20.235Z,25.71
2018-09-19T16:56:46.885Z,25.71
2018-09-19T16:59:13.524Z,25.67
2018-09-19T17:01:40.224Z,25.64
2018-09-19T17:04:06.870Z,25.65
2018-09-19T17:06:33.506Z,25.72
2018-09-19T17:09:00.184Z,25.67
2018-09-19T17:11:26.821Z,25.64
2018-09-19T17:13:53.507Z,25.62
2018-09-19T17:16:23.046Z,25.61
2018-09-19T17:18:50.994Z,25.62
2018-09-19T17:21:16.330Z,25.58
2018-09-19T17:23:42.981Z,25.57
2018-09-19T17:26:09.624Z,25.55
2018-09-19T17:28:36.316Z,25.52
2018-09-19T17:31:03.001Z,25.63
2018-09-19T17:33:29.693Z,25.63
2018-09-19T17:35:58.566Z,25.53
2018-09-19T17:38:23.018Z,25.50
2018-09-19T17:40:49.792Z,25.49
2018-09-19T17:43:16.494Z,25.48
2018-09-19T17:45:43.158Z,25.47
2018-09-19T17:48:09.814Z,25.46
2018-09-19T17:50:39.972Z,25.42
2018-09-19T17:53:05.216Z,25.40
2018-09-19T17:55:34.933Z,25.40
2018-09-19T17:58:03.696Z,25.40
2018-09-19T18:00:30.258Z,25.40
2018-09-19T18:02:54.969Z,25.36
2018-09-19T18:05:24.548Z,25.34
2018-09-19T18:07:54.131Z,25.33
2018-09-19T18:10:21.353Z,25.33
2018-09-19T18:12:48.102Z,25.30
2018-09-19T18:15:14.772Z,25.31
2018-09-19T18:17:41.454Z,25.31
2018-09-19T18:20:08.128Z,25.27
2018-09-19T18:22:34.774Z,25.26
2018-09-19T18:25:01.498Z,25.23
2018-09-19T18:27:28.103Z,25.24
2018-09-19T18:29:54.765Z,25.21
2018-09-19T18:32:21.432Z,25.21
2018-09-19T18:34:48.121Z,25.18
2018-09-19T18:37:14.812Z,25.17
2018-09-19T18:39:41.430Z,25.19
2018-09-19T18:42:08.128Z,25.16
2018-09-19T18:44:34.849Z,25.15
2018-09-19T18:47:01.495Z,25.13
2018-09-19T18:49:28.158Z,25.12
2018-09-19T18:51:54.872Z,25.12
2018-09-19T18:54:21.570Z,25.07
2018-09-19T18:56:48.219Z,25.10
2018-09-19T18:59:14.868Z,25.07
2018-09-19T19:01:41.536Z,25.08
2018-09-19T19:04:08.301Z,25.07
2018-09-19T19:06:34.948Z,24.98
2018-09-19T19:09:01.600Z,25.02
2018-09-19T19:11:28.241Z,25.03
2018-09-19T19:13:56.426Z,25.04
2018-09-19T19:16:21.713Z,25.01
2018-09-19T19:18:48.428Z,25.03
2018-09-19T19:21:15.160Z,25.06
2018-09-19T19:23:41.797Z,25.04
2018-09-19T19:26:08.486Z,25.00
2018-09-19T19:28:35.139Z,25.06
2018-09-19T19:31:01.889Z,25.05
2018-09-19T19:33:28.554Z,24.60
2018-09-19T19:35:55.287Z,24.95
2018-09-19T19:38:21.925Z,24.96
2018-09-19T19:40:49.988Z,24.11
2018-09-19T19:43:15.271Z,25.00
2018-09-19T19:45:41.966Z,24.97
2018-09-19T19:48:08.753Z,24.93
2018-09-19T19:50:35.393Z,24.98
2018-09-19T19:53:02.143Z,24.96
2018-09-19T19:55:28.752Z,24.95
2018-09-19T19:57:55.436Z,24.92
2018-09-19T20:00:22.080Z,24.86
2018-09-19T20:02:50.171Z,24.94
2018-09-19T20:05:15.523Z,24.80
2018-09-19T20:07:42.234Z,24.96
2018-09-19T20:10:08.892Z,24.92
2018-09-19T20:12:36.934Z,24.86
2018-09-19T20:15:02.228Z,24.92
2018-09-19T20:17:28.869Z,24.90
2018-09-19T20:19:55.552Z,24.83
2018-09-19T20:22:23.615Z,24.81
2018-09-19T20:24:48.889Z,24.82
2018-09-19T20:27:15.634Z,24.81
2018-09-19T20:29:42.241Z,24.81
2018-09-19T20:32:10.229Z,24.80
2018-09-19T20:34:35.542Z,24.80
2018-09-19T20:37:02.226Z,24.81
2018-09-19T20:39:30.325Z,24.81
2018-09-19T20:41:55.704Z,24.81
2018-09-19T20:44:22.405Z,24.82
2018-09-19T20:46:49.077Z,24.80
2018-09-19T20:49:15.728Z,24.78
2018-09-19T20:51:42.463Z,24.73
2018-09-19T20:54:09.144Z,24.74
2018-09-19T20:56:35.785Z,24.74
2018-09-19T20:59:02.564Z,24.80
2018-09-19T21:01:29.352Z,24.79
2018-09-19T21:03:58.468Z,24.75
2018-09-19T21:06:25.206Z,24.73
2018-09-19T21:08:51.981Z,24.72
2018-09-19T21:11:18.696Z,24.64
2018-09-19T21:13:45.313Z,24.67
2018-09-19T21:16:11.996Z,24.63
2018-09-19T21:18:38.632Z,24.70
2018-09-19T21:21:07.285Z,24.67
2018-09-19T21:23:33.915Z,24.66
2018-09-19T21:26:06.933Z,24.64
2018-09-19T21:28:27.531Z,24.65
2018-09-19T21:30:54.470Z,24.59
2018-09-19T21:33:21.153Z,24.60
2018-09-19T21:35:47.791Z,24.64
2018-09-19T21:38:20.015Z,24.62
2018-09-19T21:40:47.641Z,24.61
2018-09-19T21:43:14.333Z,24.54
2018-09-19T21:45:40.980Z,24.55
2018-09-19T21:48:07.614Z,24.59
2018-09-19T21:50:34.316Z,24.60
2018-09-19T21:53:00.952Z,24.56
2018-09-19T21:55:27.603Z,24.50
2018-09-19T21:57:54.287Z,24.56
2018-09-19T22:00:23.952Z,24.54
2018-09-19T22:02:50.611Z,24.47
2018-09-19T22:05:17.285Z,24.47
2018-09-19T22:07:45.320Z,24.47
2018-09-19T22:10:10.586Z,24.49
2018-09-19T22:12:38.618Z,24.48
2018-09-19T22:15:04.049Z,24.45
2018-09-19T22:17:35.216Z,24.48
2018-09-19T22:20:00.514Z,24.45
2018-09-19T22:22:27.158Z,24.48
2018-09-19T22:24:53.793Z,24.41
2018-09-19T22:27:20.446Z,24.42
2018-09-19T22:29:47.126Z,24.42
2018-09-19T22:32:13.833Z,24.40
2018-09-19T22:34:40.475Z,24.40
2018-09-19T22:37:07.137Z,24.36
2018-09-19T22:39:36.469Z,24.37
2018-09-19T22:42:03.115Z,24.34
2018-09-19T22:44:29.819Z,24.31
2018-09-19T22:46:56.559Z,24.33
2018-09-19T22:49:23.206Z,24.32
2018-09-19T22:51:49.893Z,24.32
2018-09-19T22:54:16.505Z,24.31
2018-09-19T22:56:43.212Z,24.27
2018-09-19T22:59:09.851Z,24.28
2018-09-19T23:01:36.515Z,24.26
2018-09-19T23:04:03.148Z,24.26
2018-09-19T23:06:29.787Z,24.23
2018-09-19T23:08:56.437Z,24.19
2018-09-19T23:11:23.105Z,24.26
2018-09-19T23:13:49.844Z,24.21
2018-09-19T23:16:16.486Z,24.19
2018-09-19T23:18:43.122Z,24.17
2018-09-19T23:21:10.820Z,24.18
2018-09-19T23:23:37.556Z,24.19
2018-09-19T23:26:04.261Z,24.18
2018-09-19T23:28:30.907Z,24.11
2018-09-19T23:30:57.558Z,24.14
2018-09-19T23:33:24.203Z,24.14
2018-09-19T23:35:50.903Z,24.11
2018-09-19T23:38:17.551Z,24.11
2018-09-19T23:40:44.196Z,24.12
2018-09-19T23:43:10.834Z,24.11
2018-09-19T23:45:37.475Z,24.08
2018-09-19T23:48:06.427Z,24.05
2018-09-19T23:50:30.812Z,24.04
2018-09-19T23:52:57.532Z,24.03
2018-09-19T23:55:24.177Z,24.01
2018-09-19T23:57:50.883Z,24.03
